Yellowstone Regional Airport
KCOD : now visible

Airfield :











YOU CAN JOIN US ON...

 
LOGIN :

Register | Disclaimer

   EN    FR    IT 

 









Legend :    VFR   Marginal VFR   IFR   Intensive IFR   Very Intensive IFR
Visi :
Ceiling :
>= 8 km
>= 3000ft
5 to 8 km
1000 to 3000 ft
1500m to 5 km
500 to 1000 ft
800 to 1500m
200 to 500 ft
< 800m
< 200 ft
Symbols :   Thunderstorms  Fog  Heavy snow  Heavy precipitations  Wind > 20 kt






- Airport Elevation : 5102 ft


KCOD - Yellowstone Regional

CURRENT METAR :
  • 201456Z AUTO 00000KT 10SM CLR 08/M03 A2999 RMK AO2 SLP147 T00831033 58003

EXPIRED METARs :
  • 201356Z AUTO 16003KT 10SM BKN060 05/M01 A3000 RMK AO2 SLP155 T00501006
  • 201256Z AUTO 00000KT 10SM OVC060 04/01 A3000 RMK AO2 SLP153 T00440006
  • 201156Z AUTO 16003KT 10SM BKN060 03/M02 A3000 RMK AO2 SLP153 T00331022 10067 20033 58010
  • 201056Z AUTO 01003KT 10SM BKN055 OVC070 04/M02 A3001 RMK AO2 SLP157 T00391022

TAF KCOD
Valid from the 20 at 12:00 until the 21 at 12:00 UTC


201120Z 2012/2112 36010KT P6SM BKN120
FM201600 03006KT P6SM SCT040 BKN070
FM202200 36012KT P6SM -SHRA SCT025 OVC050
FM210400 34007KT 6SM -RA OVC025
FM210900 35006KT P6SM SCT007 OVC015
KZLC FIR / North America



MET'MAP, your aeronautical weather chart ! - Copyright ORBIFLY December 2007 - Disclaimer

ORBIFLY MET'MAP TEAM :

Programming & Development : Alexandra Zaïnal
Original concept : Baudouin d'Aumeries
Technical & hardware support : Manuel Goepfert
Assistance : Marc-Olivier Méhu




SOURCES & CREDITS :

   NOAA       Earth
Advisory